createdAt,value
2023-04-03T00:00:54.604Z,0.90
2023-04-03T00:01:54.699Z,0.90
2023-04-03T00:02:54.605Z,1.00
2023-04-03T00:03:54.604Z,0.90
2023-04-03T00:04:54.616Z,0.90
2023-04-03T00:05:54.589Z,0.80
2023-04-03T00:06:54.588Z,0.80
2023-04-03T00:07:54.622Z,1.00
2023-04-03T00:08:54.599Z,0.80
2023-04-03T00:09:54.594Z,2.90
2023-04-03T00:10:54.569Z,0.90
2023-04-03T00:11:54.569Z,1.00
2023-04-03T00:13:04.137Z,1.10
2023-04-03T00:13:54.557Z,1.40
2023-04-03T00:14:54.539Z,1.10
2023-04-03T00:15:54.526Z,1.00
2023-04-03T00:16:54.516Z,1.00
2023-04-03T00:17:54.532Z,0.80
2023-04-03T00:18:54.477Z,1.00
2023-04-03T00:19:54.548Z,0.90
2023-04-03T00:20:54.485Z,0.80
2023-04-03T00:21:54.481Z,1.30
2023-04-03T00:22:54.467Z,1.40
2023-04-03T00:23:54.451Z,0.80
2023-04-03T00:24:54.456Z,0.80
2023-04-03T00:25:54.505Z,1.00
2023-04-03T00:26:54.450Z,1.10
2023-04-03T00:27:54.428Z,1.00
2023-04-03T00:28:54.445Z,0.80
2023-04-03T00:29:54.429Z,1.00
2023-04-03T00:30:54.422Z,0.90
2023-04-03T00:31:54.462Z,0.80
2023-04-03T00:32:54.545Z,1.00
2023-04-03T00:33:54.417Z,4.30
2023-04-03T00:34:54.403Z,0.90
2023-04-03T00:35:54.408Z,1.00
2023-04-03T00:36:54.432Z,1.00
2023-04-03T00:37:54.425Z,0.90
2023-04-03T00:38:54.350Z,1.10
2023-04-03T00:39:54.366Z,1.00
2023-04-03T00:40:54.342Z,1.00
2023-04-03T00:41:54.359Z,1.00
2023-04-03T00:42:54.323Z,1.00
2023-04-03T00:43:54.365Z,1.20
2023-04-03T00:44:54.317Z,1.10
2023-04-03T00:45:54.378Z,0.90
2023-04-03T00:46:54.304Z,1.10
2023-04-03T00:47:54.350Z,0.80
2023-04-03T00:48:54.279Z,1.00
2023-04-03T00:49:54.320Z,1.00
2023-04-03T00:50:54.268Z,0.80
2023-04-03T00:51:54.274Z,0.90
2023-04-03T00:52:54.255Z,0.90
2023-04-03T00:53:54.238Z,1.80
2023-04-03T00:54:54.244Z,1.10
2023-04-03T00:55:54.346Z,0.90
2023-04-03T00:56:54.326Z,0.80
2023-04-03T00:57:54.227Z,0.80
2023-04-03T00:58:54.219Z,1.00
2023-04-03T00:59:54.223Z,0.90
2023-04-03T01:00:54.289Z,0.80
2023-04-03T01:01:54.305Z,0.90
2023-04-03T01:02:54.263Z,0.80
2023-04-03T01:03:54.237Z,1.20
2023-04-03T01:04:54.191Z,1.00
2023-04-03T01:05:54.196Z,1.00
2023-04-03T01:06:54.138Z,1.00
2023-04-03T01:07:54.207Z,0.90
2023-04-03T01:08:54.146Z,1.00
2023-04-03T01:09:54.148Z,0.90
2023-04-03T01:10:54.137Z,1.10
2023-04-03T01:11:54.125Z,1.20
2023-04-03T01:12:54.133Z,0.90
2023-04-03T01:13:54.175Z,1.10
2023-04-03T01:14:54.125Z,0.90
2023-04-03T01:15:54.133Z,0.90
2023-04-03T01:16:54.091Z,0.90
2023-04-03T01:17:54.074Z,0.70
2023-04-03T01:18:54.065Z,1.00
2023-04-03T01:19:54.101Z,1.30
2023-04-03T01:20:54.073Z,0.80
2023-04-03T01:21:54.041Z,0.90
2023-04-03T01:22:54.040Z,0.90
2023-04-03T01:23:54.039Z,0.90
2023-04-03T01:24:54.050Z,0.70
2023-04-03T01:25:54.278Z,1.10
2023-04-03T01:26:54.036Z,1.00
2023-04-03T01:27:54.031Z,0.90
2023-04-03T01:28:53.995Z,1.00
2023-04-03T01:29:54.016Z,1.00
2023-04-03T01:30:53.997Z,1.00
2023-04-03T01:31:54.138Z,1.10
2023-04-03T01:32:53.999Z,1.20
2023-04-03T01:33:54.002Z,1.10
2023-04-03T01:34:53.953Z,0.90
2023-04-03T01:35:54.027Z,0.80
2023-04-03T01:36:53.977Z,0.90
2023-04-03T01:37:54.007Z,0.70
2023-04-03T01:38:53.944Z,0.90
2023-04-03T01:39:53.930Z,0.90
2023-04-03T01:40:53.938Z,1.00
2023-04-03T01:41:53.927Z,0.90
2023-04-03T01:42:53.899Z,0.90
2023-04-03T01:43:53.941Z,1.00
2023-04-03T01:44:53.912Z,0.90
2023-04-03T01:45:53.938Z,1.00
2023-04-03T01:46:53.892Z,1.00
2023-04-03T01:47:53.900Z,1.20
2023-04-03T01:48:53.880Z,0.80
2023-04-03T01:49:53.912Z,0.90
2023-04-03T01:50:53.877Z,0.90
2023-04-03T01:51:53.841Z,0.80
2023-04-03T01:52:53.864Z,0.90
2023-04-03T01:53:53.857Z,0.90
2023-04-03T01:54:53.828Z,0.80
2023-04-03T01:55:53.866Z,0.90
2023-04-03T01:56:53.842Z,1.00
2023-04-03T01:57:53.791Z,0.80
2023-04-03T01:58:53.906Z,0.90
2023-04-03T01:59:53.798Z,1.10
2023-04-03T02:00:53.816Z,0.80
2023-04-03T02:01:53.828Z,1.10
2023-04-03T02:02:53.801Z,0.90
2023-04-03T02:03:53.812Z,1.00
2023-04-03T02:04:53.783Z,0.80
2023-04-03T02:05:53.782Z,0.80
2023-04-03T02:06:53.760Z,0.90
2023-04-03T02:07:53.779Z,0.90
2023-04-03T02:08:53.747Z,0.80
2023-04-03T02:09:53.720Z,0.80
2023-04-03T02:10:53.717Z,0.90
2023-04-03T02:11:53.733Z,0.90
2023-04-03T02:12:53.726Z,0.80
2023-04-03T02:13:53.745Z,0.70
2023-04-03T02:14:53.683Z,1.00
2023-04-03T02:15:53.722Z,1.10
2023-04-03T02:16:54.406Z,0.90
2023-04-03T02:17:53.735Z,1.00
2023-04-03T02:18:53.655Z,0.90
2023-04-03T02:19:53.701Z,0.80
2023-04-03T02:20:53.640Z,1.00
2023-04-03T02:21:53.620Z,1.30
2023-04-03T02:22:53.665Z,0.90
2023-04-03T02:23:53.635Z,0.90
2023-04-03T02:24:53.631Z,0.80
2023-04-03T02:25:53.670Z,1.00
2023-04-03T02:27:08.072Z,0.90
2023-04-03T02:27:54.619Z,0.80
2023-04-03T02:28:53.608Z,0.90
2023-04-03T02:29:53.586Z,0.80
2023-04-03T02:30:53.603Z,0.90
2023-04-03T02:31:54.075Z,1.10
2023-04-03T02:32:53.672Z,0.90
2023-04-03T02:33:53.559Z,1.20
2023-04-03T02:34:53.559Z,0.90
2023-04-03T02:35:53.564Z,1.20
2023-04-03T02:36:53.548Z,1.60
2023-04-03T02:37:53.573Z,1.20
2023-04-03T02:38:53.539Z,0.90
2023-04-03T02:39:53.504Z,1.10
2023-04-03T02:40:53.511Z,1.20
2023-04-03T02:41:53.498Z,0.90
2023-04-03T02:42:53.505Z,1.10
2023-04-03T02:43:53.580Z,1.10
2023-04-03T02:44:53.499Z,1.00
2023-04-03T02:45:53.509Z,1.20
2023-04-03T02:46:53.469Z,1.00
2023-04-03T02:47:53.530Z,1.10
2023-04-03T02:48:53.481Z,0.90
2023-04-03T02:49:53.492Z,1.00
2023-04-03T02:50:53.478Z,0.90
2023-04-03T02:51:53.446Z,1.10
2023-04-03T02:52:53.474Z,0.80
2023-04-03T02:53:53.428Z,0.90
2023-04-03T02:54:53.419Z,1.20
2023-04-03T02:55:53.427Z,1.00
2023-04-03T02:56:53.432Z,0.90
2023-04-03T02:57:53.417Z,0.80
2023-04-03T02:58:53.404Z,1.00
2023-04-03T02:59:53.401Z,1.00
2023-04-03T03:00:53.392Z,1.10
2023-04-03T03:01:53.446Z,0.90
2023-04-03T03:02:53.378Z,1.00
2023-04-03T03:03:53.372Z,1.40
2023-04-03T03:04:53.364Z,1.10
2023-04-03T03:05:53.338Z,1.10
2023-04-03T03:06:53.343Z,0.90
2023-04-03T03:07:53.387Z,1.30
2023-04-03T03:08:53.326Z,1.10
2023-04-03T03:09:53.296Z,1.10
2023-04-03T03:10:53.325Z,1.00
2023-04-03T03:11:53.310Z,1.20
2023-04-03T03:12:53.294Z,1.10
2023-04-03T03:13:53.323Z,0.90
2023-04-03T03:14:53.278Z,1.10
2023-04-03T03:15:53.307Z,1.10
2023-04-03T03:16:53.265Z,0.90
2023-04-03T03:17:53.301Z,1.50
2023-04-03T03:18:53.253Z,1.30
2023-04-03T03:19:53.316Z,1.00
2023-04-03T03:20:53.250Z,1.10
2023-04-03T03:21:53.222Z,1.30
2023-04-03T03:22:53.224Z,1.00
2023-04-03T03:23:53.203Z,1.10
2023-04-03T03:24:53.212Z,1.00
2023-04-03T03:25:53.226Z,1.10
2023-04-03T03:26:53.206Z,1.30
2023-04-03T03:27:53.202Z,0.80
2023-04-03T03:28:53.187Z,1.20
2023-04-03T03:29:53.192Z,1.40
2023-04-03T03:30:53.187Z,1.00
2023-04-03T03:31:53.417Z,1.20
2023-04-03T03:32:53.241Z,1.10
2023-04-03T03:33:53.154Z,1.20
2023-04-03T03:34:53.142Z,1.30
2023-04-03T03:35:53.169Z,1.10
2023-04-03T03:36:53.136Z,1.20
2023-04-03T03:37:53.164Z,1.30
2023-04-03T03:38:53.125Z,1.10
2023-04-03T03:39:53.134Z,1.10
2023-04-03T03:40:53.105Z,0.90
2023-04-03T03:41:53.076Z,1.10
2023-04-03T03:42:53.083Z,1.10
2023-04-03T03:43:53.138Z,1.30
2023-04-03T03:44:53.096Z,1.40
2023-04-03T03:45:53.060Z,1.10
2023-04-03T03:46:53.119Z,1.20
2023-04-03T03:47:53.094Z,1.40
2023-04-03T03:48:53.039Z,1.20
2023-04-03T03:49:53.057Z,1.40
2023-04-03T03:50:53.047Z,1.30
2023-04-03T03:51:53.005Z,1.00
2023-04-03T03:52:53.025Z,1.30
2023-04-03T03:53:53.023Z,1.20
2023-04-03T03:54:53.004Z,1.20
2023-04-03T03:55:53.038Z,1.60
2023-04-03T03:56:53.015Z,1.30
2023-04-03T03:57:52.976Z,1.50
2023-04-03T03:58:52.979Z,1.10
2023-04-03T03:59:52.985Z,1.30
2023-04-03T04:00:52.983Z,1.70
2023-04-03T04:01:53.066Z,1.50
2023-04-03T04:02:53.019Z,1.30
2023-04-03T04:03:53.085Z,1.20
2023-04-03T04:04:52.954Z,1.20
2023-04-03T04:05:52.928Z,1.20
2023-04-03T04:06:52.921Z,1.50
2023-04-03T04:07:52.957Z,1.20
2023-04-03T04:08:52.910Z,1.20
2023-04-03T04:09:52.899Z,1.20
2023-04-03T04:10:52.896Z,1.40
2023-04-03T04:11:52.892Z,1.30
2023-04-03T04:12:52.876Z,1.20
2023-04-03T04:13:52.914Z,1.30
2023-04-03T04:14:52.866Z,1.30
2023-04-03T04:15:52.844Z,1.20
2023-04-03T04:16:52.908Z,1.40
2023-04-03T04:17:52.920Z,1.30
2023-04-03T04:18:52.824Z,1.30
2023-04-03T04:19:52.847Z,1.10
2023-04-03T04:20:52.816Z,1.30
2023-04-03T04:21:52.823Z,1.40
2023-04-03T04:22:52.833Z,1.30
2023-04-03T04:23:52.812Z,1.40
2023-04-03T04:24:52.812Z,1.30
2023-04-03T04:25:52.830Z,1.30
2023-04-03T04:26:52.800Z,1.30
2023-04-03T04:27:52.772Z,1.40
2023-04-03T04:28:52.754Z,1.40
2023-04-03T04:29:52.784Z,1.40
2023-04-03T04:30:52.781Z,1.50
2023-04-03T04:31:52.771Z,1.80
2023-04-03T04:32:52.763Z,1.60
2023-04-03T04:33:52.740Z,1.50
2023-04-03T04:34:52.775Z,1.30
2023-04-03T04:35:52.855Z,1.30
2023-04-03T04:36:52.778Z,1.30
2023-04-03T04:37:53.092Z,1.00
2023-04-03T04:38:52.721Z,1.30
2023-04-03T04:39:52.700Z,1.20
2023-04-03T04:40:52.690Z,1.60
2023-04-03T04:41:52.683Z,1.40
2023-04-03T04:42:52.686Z,1.20
2023-04-03T04:43:52.674Z,1.50
2023-04-03T04:44:52.659Z,1.40
2023-04-03T04:45:52.698Z,1.30
2023-04-03T04:46:52.627Z,1.30
2023-04-03T04:47:52.755Z,1.60
2023-04-03T04:49:03.398Z,1.40
2023-04-03T04:49:53.683Z,1.50
2023-04-03T04:51:21.395Z,1.30
2023-04-03T04:52:04.090Z,1.60
2023-04-03T04:52:53.598Z,1.50
2023-04-03T04:54:05.386Z,1.30
2023-04-03T04:54:52.577Z,1.80
2023-04-03T04:55:52.639Z,1.40
2023-04-03T04:56:52.676Z,1.40
2023-04-03T04:57:52.580Z,1.30
2023-04-03T04:58:52.578Z,1.50
2023-04-03T04:59:52.558Z,1.50
2023-04-03T05:00:52.550Z,1.70
2023-04-03T05:01:52.615Z,1.30
2023-04-03T05:02:52.587Z,1.50
2023-04-03T05:03:52.544Z,1.80
2023-04-03T05:04:52.642Z,1.60
2023-04-03T05:05:52.518Z,1.40
2023-04-03T05:06:52.510Z,1.40
2023-04-03T05:07:52.587Z,1.50
2023-04-03T05:08:52.491Z,1.70
2023-04-03T05:09:52.487Z,2.10
2023-04-03T05:10:54.224Z,1.30
2023-04-03T05:11:52.479Z,1.60
2023-04-03T05:12:52.463Z,2.20
2023-04-03T05:13:55.788Z,1.30
2023-04-03T05:14:52.446Z,1.30
2023-04-03T05:15:52.517Z,1.60
2023-04-03T05:16:52.804Z,1.40
2023-04-03T05:17:52.486Z,1.40
2023-04-03T05:18:52.422Z,1.50
2023-04-03T05:19:52.446Z,1.50
2023-04-03T05:20:52.412Z,1.80
2023-04-03T05:21:52.415Z,1.30
2023-04-03T05:22:52.425Z,1.70
2023-04-03T05:23:52.440Z,1.60
2023-04-03T05:24:52.381Z,1.50
2023-04-03T05:25:52.406Z,1.40
2023-04-03T05:26:52.384Z,1.80
2023-04-03T05:27:52.352Z,1.50
2023-04-03T05:28:52.413Z,1.90
2023-04-03T05:29:52.356Z,1.70
2023-04-03T05:30:52.369Z,1.70
2023-04-03T05:31:52.416Z,1.50
2023-04-03T05:32:52.501Z,1.40
2023-04-03T05:33:52.337Z,1.60
2023-04-03T05:34:52.331Z,1.60
2023-04-03T05:35:52.331Z,1.80
2023-04-03T05:36:52.300Z,1.60
2023-04-03T05:37:52.782Z,1.60
2023-04-03T05:38:52.328Z,1.70
2023-04-03T05:39:52.295Z,1.90
2023-04-03T05:40:52.271Z,1.60
2023-04-03T05:41:52.303Z,1.60
2023-04-03T05:42:52.268Z,1.40
2023-04-03T05:43:53.481Z,1.60
2023-04-03T05:44:52.257Z,1.80
2023-04-03T05:45:52.275Z,1.80
2023-04-03T05:46:52.223Z,1.60
2023-04-03T05:47:52.268Z,1.60
2023-04-03T05:48:52.222Z,2.70
2023-04-03T05:49:52.271Z,1.70
2023-04-03T05:50:52.213Z,1.60
2023-04-03T05:51:52.204Z,1.70
2023-04-03T05:52:52.234Z,1.60
2023-04-03T05:53:52.184Z,1.50
2023-04-03T05:54:52.206Z,1.90
2023-04-03T05:55:52.221Z,1.80
2023-04-03T05:56:52.198Z,1.40
2023-04-03T05:57:52.164Z,1.90
2023-04-03T05:58:52.157Z,1.90
2023-04-03T05:59:52.145Z,1.90
2023-04-03T06:00:52.147Z,1.70
2023-04-03T06:01:52.188Z,1.50
2023-04-03T06:02:52.188Z,1.60
2023-04-03T06:03:52.286Z,1.80
2023-04-03T06:04:52.235Z,1.70
2023-04-03T06:05:52.120Z,1.60
2023-04-03T06:06:52.097Z,2.00
2023-04-03T06:07:52.135Z,1.60
2023-04-03T06:08:52.083Z,1.60
2023-04-03T06:09:52.087Z,1.80
2023-04-03T06:10:52.078Z,1.80
2023-04-03T06:11:52.065Z,1.50
2023-04-03T06:12:52.065Z,1.60
2023-04-03T06:13:52.090Z,1.60
2023-04-03T06:14:52.051Z,1.70
2023-04-03T06:15:52.038Z,1.60
2023-04-03T06:16:52.060Z,1.80
2023-04-03T06:17:52.060Z,1.80
2023-04-03T06:18:52.007Z,1.70
2023-04-03T06:19:52.058Z,1.70
2023-04-03T06:20:52.013Z,1.50
2023-04-03T06:21:51.995Z,1.90
2023-04-03T06:22:51.980Z,1.60
2023-04-03T06:23:51.995Z,1.80
2023-04-03T06:24:51.969Z,1.70
2023-04-03T06:25:52.026Z,1.80
2023-04-03T06:26:51.955Z,1.70
2023-04-03T06:27:51.957Z,1.80
2023-04-03T06:28:51.958Z,1.80
2023-04-03T06:29:51.933Z,1.90
2023-04-03T06:30:51.945Z,2.00
2023-04-03T06:31:51.982Z,1.70
2023-04-03T06:32:51.944Z,1.90
2023-04-03T06:33:51.912Z,1.90
2023-04-03T06:34:51.970Z,1.60
2023-04-03T06:35:51.946Z,1.60
2023-04-03T06:36:51.896Z,2.00
2023-04-03T06:37:56.190Z,1.90
2023-04-03T06:38:51.890Z,2.00
2023-04-03T06:39:51.897Z,1.90
2023-04-03T06:40:52.044Z,1.70
2023-04-03T06:41:51.898Z,1.80
2023-04-03T06:42:51.847Z,1.60
2023-04-03T06:43:52.165Z,1.90
2023-04-03T06:44:51.832Z,1.80
2023-04-03T06:46:02.274Z,2.10
2023-04-03T06:46:51.833Z,1.60
2023-04-03T06:47:51.824Z,1.60
2023-04-03T06:48:51.813Z,1.80
2023-04-03T06:49:51.849Z,1.80
2023-04-03T06:50:51.808Z,1.70
2023-04-03T06:51:51.783Z,1.80
2023-04-03T06:52:51.803Z,1.90
2023-04-03T06:53:51.912Z,1.80
2023-04-03T06:54:51.773Z,1.70
2023-04-03T06:55:51.800Z,2.00
2023-04-03T06:56:51.778Z,2.60
2023-04-03T06:57:51.752Z,1.70
2023-04-03T06:58:51.737Z,1.70
2023-04-03T06:59:51.753Z,2.30
2023-04-03T07:00:51.736Z,2.00
2023-04-03T07:01:51.800Z,1.80
2023-04-03T07:02:51.728Z,1.70
2023-04-03T07:03:51.701Z,1.80
2023-04-03T07:04:51.797Z,1.90
2023-04-03T07:05:51.691Z,2.00
2023-04-03T07:06:51.696Z,1.50
2023-04-03T07:07:51.712Z,1.90
2023-04-03T07:08:51.720Z,1.90
2023-04-03T07:09:51.654Z,1.80
2023-04-03T07:10:51.644Z,2.00
2023-04-03T07:11:51.645Z,1.80
2023-04-03T07:12:51.658Z,1.90
2023-04-03T07:13:51.708Z,1.80
2023-04-03T07:14:51.626Z,2.00
2023-04-03T07:15:51.630Z,1.90
2023-04-03T07:16:56.278Z,1.80
2023-04-03T07:17:51.653Z,1.80
2023-04-03T07:18:51.599Z,2.00
2023-04-03T07:19:51.623Z,1.90
2023-04-03T07:20:51.575Z,1.80
2023-04-03T07:21:51.667Z,1.90
2023-04-03T07:22:51.571Z,1.80
2023-04-03T07:23:51.604Z,1.80
2023-04-03T07:24:51.556Z,2.00
2023-04-03T07:25:51.592Z,1.90
2023-04-03T07:26:51.547Z,2.00
2023-04-03T07:27:51.544Z,2.00
2023-04-03T07:28:51.524Z,1.70
2023-04-03T07:29:51.527Z,1.80
2023-04-03T07:30:51.544Z,1.90
2023-04-03T07:31:51.602Z,1.90
2023-04-03T07:32:51.564Z,1.80
2023-04-03T07:33:51.545Z,1.90
2023-04-03T07:34:51.497Z,1.80
2023-04-03T07:35:51.520Z,2.00
2023-04-03T07:36:51.492Z,1.70
2023-04-03T07:37:51.518Z,2.20
2023-04-03T07:38:51.461Z,1.80
2023-04-03T07:39:51.457Z,1.80
2023-04-03T07:40:51.466Z,2.00
2023-04-03T07:41:51.450Z,1.70
2023-04-03T07:42:51.432Z,1.80
2023-04-03T07:43:51.782Z,1.80
2023-04-03T07:44:51.433Z,1.60
2023-04-03T07:45:51.496Z,1.90
2023-04-03T07:46:51.405Z,2.00
2023-04-03T07:47:53.499Z,1.90
2023-04-03T07:48:51.396Z,1.60
2023-04-03T07:49:51.423Z,1.70
2023-04-03T07:50:51.401Z,1.80
2023-04-03T07:51:51.380Z,2.20
2023-04-03T07:52:51.369Z,2.60
2023-04-03T07:53:51.365Z,2.00
2023-04-03T07:54:51.365Z,2.10
2023-04-03T07:55:51.404Z,1.90
2023-04-03T07:56:51.494Z,2.10
2023-04-03T07:57:51.328Z,2.00
2023-04-03T07:58:51.315Z,1.90
2023-04-03T07:59:51.311Z,1.80
2023-04-03T08:00:51.321Z,1.80
2023-04-03T08:01:51.338Z,2.30
2023-04-03T08:02:51.494Z,2.10
2023-04-03T08:03:51.354Z,1.80
2023-04-03T08:04:51.496Z,1.70
2023-04-03T08:05:51.278Z,1.90
2023-04-03T08:06:51.289Z,2.20
2023-04-03T08:07:51.307Z,2.50
2023-04-03T08:08:51.262Z,1.70
2023-04-03T08:09:51.228Z,1.80
2023-04-03T08:10:51.236Z,2.20
2023-04-03T08:11:51.249Z,2.20
2023-04-03T08:12:51.214Z,1.90
2023-04-03T08:13:51.865Z,2.00
2023-04-03T08:14:51.213Z,1.80
2023-04-03T08:15:51.197Z,1.80
2023-04-03T08:16:51.271Z,2.20
2023-04-03T08:17:51.211Z,2.00
2023-04-03T08:18:51.196Z,1.70
2023-04-03T08:19:51.203Z,1.90
2023-04-03T08:20:51.212Z,1.90
2023-04-03T08:21:51.202Z,2.40
2023-04-03T08:22:51.152Z,1.80
2023-04-03T08:23:51.161Z,2.20
2023-04-03T08:24:58.411Z,2.00
2023-04-03T08:25:52.156Z,2.60
2023-04-03T08:26:51.178Z,2.50
2023-04-03T08:27:51.153Z,2.00
2023-04-03T08:28:51.125Z,1.90
2023-04-03T08:29:51.098Z,1.70
2023-04-03T08:30:51.138Z,1.70
2023-04-03T08:31:51.162Z,1.90
2023-04-03T08:32:51.116Z,2.00
2023-04-03T08:33:51.097Z,1.70
2023-04-03T08:34:51.098Z,1.70
2023-04-03T08:35:51.079Z,1.60
2023-04-03T08:36:51.063Z,1.70
2023-04-03T08:37:51.091Z,1.80
2023-04-03T08:38:51.049Z,1.60
2023-04-03T08:39:51.065Z,2.30
2023-04-03T08:40:51.045Z,2.00
2023-04-03T08:41:51.046Z,1.80
2023-04-03T08:42:51.048Z,1.90
2023-04-03T08:43:51.044Z,1.80
2023-04-03T08:44:51.081Z,1.80
2023-04-03T08:45:50.995Z,3.20
2023-04-03T08:46:50.986Z,2.90
2023-04-03T08:47:51.555Z,2.90
2023-04-03T08:48:50.995Z,2.90
2023-04-03T08:49:51.208Z,2.40
2023-04-03T08:50:52.908Z,2.60
2023-04-03T08:51:50.999Z,4.30
2023-04-03T08:52:50.961Z,3.60
2023-04-03T08:53:50.946Z,2.90
2023-04-03T08:54:50.943Z,1.90
2023-04-03T08:55:51.045Z,2.30
2023-04-03T08:56:50.946Z,1.40
2023-04-03T08:57:50.904Z,1.60
2023-04-03T08:58:50.908Z,1.40
2023-04-03T08:59:50.888Z,1.50
2023-04-03T09:00:51.014Z,1.40
2023-04-03T09:01:50.926Z,1.40
2023-04-03T09:02:50.953Z,1.70
2023-04-03T09:03:50.915Z,1.50
2023-04-03T09:04:50.878Z,1.80
2023-04-03T09:05:50.877Z,1.20
2023-04-03T09:06:50.878Z,1.30
2023-04-03T09:07:50.898Z,1.50
2023-04-03T09:08:50.837Z,1.50
2023-04-03T09:09:50.833Z,1.50
2023-04-03T09:10:50.840Z,2.70
2023-04-03T09:11:50.808Z,1.30
2023-04-03T09:12:50.837Z,1.40
2023-04-03T09:13:50.855Z,1.30
2023-04-03T09:14:50.792Z,1.40
2023-04-03T09:15:50.799Z,1.50
2023-04-03T09:16:50.850Z,1.70
2023-04-03T09:17:50.806Z,1.60
2023-04-03T09:18:50.790Z,2.40
2023-04-03T09:19:50.785Z,1.40
2023-04-03T09:20:50.751Z,1.40
2023-04-03T09:21:50.742Z,1.60
2023-04-03T09:22:52.739Z,1.40
2023-04-03T09:23:50.735Z,1.50
2023-04-03T09:24:50.712Z,1.90
2023-04-03T09:25:50.722Z,1.50
2023-04-03T09:26:50.706Z,1.30
2023-04-03T09:27:50.700Z,1.40
2023-04-03T09:28:51.259Z,1.30
2023-04-03T09:29:50.700Z,1.50
2023-04-03T09:30:50.687Z,1.30
2023-04-03T09:31:50.789Z,2.80
2023-04-03T09:32:50.762Z,1.30
2023-04-03T09:33:50.675Z,1.40
2023-04-03T09:34:50.645Z,1.60
2023-04-03T09:35:50.703Z,1.50
2023-04-03T09:36:50.647Z,1.50
2023-04-03T09:37:50.675Z,1.50
2023-04-03T09:38:50.623Z,1.50
2023-04-03T09:39:50.602Z,1.60
2023-04-03T09:40:50.643Z,1.70
2023-04-03T09:41:50.582Z,1.50
2023-04-03T09:42:59.094Z,1.70
2023-04-03T09:43:51.648Z,1.60
2023-04-03T09:44:50.585Z,1.40
2023-04-03T09:45:50.601Z,1.50
2023-04-03T09:46:50.578Z,1.60
2023-04-03T09:47:50.607Z,1.80
2023-04-03T09:48:55.061Z,1.50
2023-04-03T09:49:51.849Z,1.40
2023-04-03T09:50:50.514Z,1.60
2023-04-03T09:51:50.515Z,1.50
2023-04-03T09:52:50.527Z,1.80
2023-04-03T09:53:50.529Z,1.70
2023-04-03T09:54:50.508Z,1.60
2023-04-03T09:55:50.573Z,1.60
2023-04-03T09:56:50.539Z,1.70
2023-04-03T09:57:51.596Z,1.50
2023-04-03T09:58:51.259Z,1.50
2023-04-03T09:59:50.531Z,1.60
2023-04-03T10:00:50.496Z,1.50
2023-04-03T10:01:50.557Z,1.80
2023-04-03T10:02:50.487Z,1.70
2023-04-03T10:03:50.435Z,1.50
2023-04-03T10:04:58.746Z,1.60
2023-04-03T10:05:51.439Z,1.40
2023-04-03T10:06:50.416Z,1.70
2023-04-03T10:08:01.609Z,1.50
2023-04-03T10:08:51.400Z,1.50
2023-04-03T10:09:50.415Z,1.60
2023-04-03T10:10:50.376Z,1.70
2023-04-03T10:11:50.387Z,1.60
2023-04-03T10:12:50.392Z,1.50
2023-04-03T10:13:51.114Z,1.50
2023-04-03T10:14:50.369Z,1.60
2023-04-03T10:15:50.363Z,1.30
2023-04-03T10:16:50.395Z,1.40
2023-04-03T10:17:50.382Z,1.30
2023-04-03T10:18:50.397Z,1.40
2023-04-03T10:19:50.387Z,1.40
2023-04-03T10:20:50.392Z,1.50
2023-04-03T10:21:50.392Z,1.30
2023-04-03T10:22:50.315Z,1.50
2023-04-03T10:23:50.293Z,1.40
2023-04-03T10:24:50.302Z,1.20
2023-04-03T10:25:50.482Z,1.10
2023-04-03T10:26:50.308Z,1.10
2023-04-03T10:27:50.273Z,1.30
2023-04-03T10:28:50.277Z,1.10
2023-04-03T10:29:50.250Z,1.10
2023-04-03T10:30:50.396Z,1.40
2023-04-03T10:31:50.272Z,1.20
2023-04-03T10:32:50.256Z,1.20
2023-04-03T10:33:50.236Z,1.10
2023-04-03T10:34:58.583Z,1.10
2023-04-03T10:35:51.227Z,1.10
2023-04-03T10:36:50.273Z,1.20
2023-04-03T10:37:50.241Z,1.40
2023-04-03T10:38:50.181Z,1.20
2023-04-03T10:39:50.160Z,1.70
2023-04-03T10:40:50.192Z,1.20
2023-04-03T10:41:51.464Z,1.10
2023-04-03T10:42:50.161Z,1.10
2023-04-03T10:43:50.214Z,1.00
2023-04-03T10:44:50.153Z,1.50
2023-04-03T10:45:50.156Z,1.20
2023-04-03T10:46:50.157Z,1.00
2023-04-03T10:47:50.167Z,1.00
2023-04-03T10:48:50.127Z,1.10
2023-04-03T10:49:59.140Z,1.10
2023-04-03T10:50:51.144Z,1.00
2023-04-03T10:51:50.115Z,1.10
2023-04-03T10:52:50.159Z,1.20
2023-04-03T10:53:50.079Z,1.00
2023-04-03T10:54:50.095Z,0.90
2023-04-03T10:55:50.784Z,1.10
2023-04-03T10:56:58.033Z,0.90
2023-04-03T10:57:51.069Z,1.00
2023-04-03T10:58:50.044Z,1.00
2023-04-03T10:59:50.056Z,1.10
2023-04-03T11:00:50.019Z,1.00
2023-04-03T11:01:50.150Z,1.00
2023-04-03T11:02:50.131Z,0.80
2023-04-03T11:03:50.040Z,0.80
2023-04-03T11:04:50.007Z,1.10
2023-04-03T11:05:50.025Z,1.00
2023-04-03T11:06:49.977Z,1.30
2023-04-03T11:07:50.009Z,2.30
2023-04-03T11:08:50.033Z,0.90
2023-04-03T11:09:49.967Z,0.90
2023-04-03T11:10:50.009Z,1.10
2023-04-03T11:11:49.960Z,0.90
2023-04-03T11:12:49.927Z,1.20
2023-04-03T11:13:49.973Z,1.70
2023-04-03T11:14:49.943Z,1.30
2023-04-03T11:15:49.977Z,1.30
2023-04-03T11:16:54.491Z,1.90
2023-04-03T11:17:49.949Z,1.20
2023-04-03T11:18:49.909Z,1.00
2023-04-03T11:19:50.039Z,1.20
2023-04-03T11:20:49.879Z,1.10
2023-04-03T11:21:50.070Z,1.40
2023-04-03T11:22:49.889Z,1.50
2023-04-03T11:23:50.343Z,1.00
2023-04-03T11:24:49.919Z,1.00
2023-04-03T11:25:49.885Z,0.80
2023-04-03T11:26:49.853Z,1.20
2023-04-03T11:27:49.824Z,1.10
2023-04-03T11:28:49.815Z,1.60
2023-04-03T11:29:49.807Z,1.50
2023-04-03T11:30:49.836Z,1.30
2023-04-03T11:31:49.935Z,1.50
2023-04-03T11:32:49.982Z,1.30
2023-04-03T11:33:49.807Z,1.00
2023-04-03T11:34:49.802Z,1.10
2023-04-03T11:35:49.842Z,1.10
2023-04-03T11:36:49.877Z,1.10
2023-04-03T11:37:49.795Z,1.00
2023-04-03T11:38:49.779Z,1.90
2023-04-03T11:39:49.764Z,1.40
2023-04-03T11:40:49.837Z,1.10
2023-04-03T11:41:51.674Z,1.00
2023-04-03T11:42:49.797Z,1.20
2023-04-03T11:43:49.748Z,1.30
2023-04-03T11:44:49.696Z,1.10
2023-04-03T11:45:49.700Z,1.40
2023-04-03T11:46:49.748Z,1.30
2023-04-03T11:47:49.779Z,1.00
2023-04-03T11:48:49.684Z,2.00
2023-04-03T11:49:49.866Z,1.20
2023-04-03T11:50:49.668Z,2.00
2023-04-03T11:51:49.699Z,1.20
2023-04-03T11:52:49.687Z,1.20
2023-04-03T11:53:49.626Z,1.20
2023-04-03T11:54:49.685Z,1.30
2023-04-03T11:55:49.744Z,2.20
2023-04-03T11:56:49.781Z,3.80
2023-04-03T11:57:49.625Z,1.70
2023-04-03T11:58:49.594Z,1.80
2023-04-03T11:59:49.654Z,1.20
2023-04-03T12:00:49.595Z,1.20
2023-04-03T12:01:50.110Z,2.70
2023-04-03T12:02:54.267Z,1.80
2023-04-03T12:03:50.668Z,1.30
2023-04-03T12:04:49.561Z,0.90
2023-04-03T12:05:49.567Z,0.90
2023-04-03T12:06:49.533Z,1.20
2023-04-03T12:07:49.573Z,1.40
2023-04-03T12:08:49.558Z,1.60
2023-04-03T12:09:49.555Z,2.80
2023-04-03T12:10:49.492Z,5.50
2023-04-03T12:11:49.512Z,1.70
2023-04-03T12:12:49.566Z,1.50
2023-04-03T12:13:49.534Z,1.50
2023-04-03T12:14:49.499Z,1.40
2023-04-03T12:15:49.465Z,1.10
2023-04-03T12:16:49.478Z,1.70
2023-04-03T12:17:49.548Z,1.20
2023-04-03T12:18:49.474Z,1.20
2023-04-03T12:19:49.499Z,1.20
2023-04-03T12:20:49.467Z,1.20
2023-04-03T12:21:49.476Z,1.50
2023-04-03T12:22:49.406Z,1.00
2023-04-03T12:23:49.415Z,1.20
2023-04-03T12:24:49.446Z,1.00
2023-04-03T12:25:49.438Z,1.10
2023-04-03T12:26:49.435Z,1.90
2023-04-03T12:27:49.373Z,1.40
2023-04-03T12:28:49.472Z,1.40
2023-04-03T12:29:49.358Z,2.00
2023-04-03T12:30:49.452Z,1.00
2023-04-03T12:31:49.403Z,1.00
2023-04-03T12:32:49.498Z,1.00
2023-04-03T12:33:49.346Z,1.20
2023-04-03T12:34:49.323Z,1.00
2023-04-03T12:35:49.360Z,3.50
2023-04-03T12:36:49.319Z,1.10
2023-04-03T12:37:49.359Z,1.10
2023-04-03T12:38:49.292Z,1.00
2023-04-03T12:39:49.314Z,0.90
2023-04-03T12:40:49.283Z,1.00
2023-04-03T12:41:49.298Z,1.10
2023-04-03T12:42:49.294Z,1.10
2023-04-03T12:43:49.303Z,1.10
2023-04-03T12:44:49.344Z,1.00
2023-04-03T12:45:49.306Z,1.00
2023-04-03T12:46:49.271Z,1.10
2023-04-03T12:47:49.291Z,1.00
2023-04-03T12:48:49.321Z,1.10
2023-04-03T12:49:51.509Z,1.10
2023-04-03T12:50:49.230Z,1.20
2023-04-03T12:51:49.206Z,0.90
2023-04-03T12:52:49.228Z,0.80
2023-04-03T12:53:49.198Z,1.20
2023-04-03T12:54:49.216Z,0.80
2023-04-03T12:55:49.239Z,1.10
2023-04-03T12:56:49.173Z,1.50
2023-04-03T12:57:49.208Z,1.00
2023-04-03T12:58:49.190Z,1.00
2023-04-03T12:59:49.189Z,1.00
2023-04-03T13:00:49.219Z,1.00
2023-04-03T13:01:49.231Z,0.90
2023-04-03T13:02:49.293Z,0.90
2023-04-03T13:03:49.361Z,0.90
2023-04-03T13:04:49.125Z,0.90
2023-04-03T13:05:49.120Z,1.00
2023-04-03T13:06:49.108Z,1.00
2023-04-03T13:07:49.135Z,1.10
2023-04-03T13:08:49.125Z,1.10
2023-04-03T13:09:49.167Z,1.10
2023-04-03T13:10:49.069Z,1.10
2023-04-03T13:11:49.060Z,1.00
2023-04-03T13:12:49.114Z,1.10
2023-04-03T13:13:49.099Z,1.10
2023-04-03T13:14:49.075Z,0.80
2023-04-03T13:15:49.047Z,1.10
2023-04-03T13:16:49.113Z,1.00
2023-04-03T13:17:49.078Z,1.00
2023-04-03T13:18:49.030Z,0.90